Time;durP1;ratioP1;P1;durP2;ratioP2;P2;SDS_P1;SDS_P2;PMS_P1;PMS_P2;Temp;Humidity;BMP_temperature;BMP_pressure;BME280_temperature;BME280_humidity;BME280_pressure;Samples;Min_cycle;Max_cycle;Signal;HPM_P1;HPM_P2
2021/10/01 00:00:28;;;;;;;4.43;1.65;;;16.50;78.30;;;;;;4190825;28;20483;-59
2021/10/01 00:02:49;;;;;;;3.35;1.20;;;16.50;78.30;;;;;;4191050;28;20475;-59
2021/10/01 00:05:12;;;;;;;2.63;1.10;;;16.50;78.30;;;;;;4190918;28;20387;-58
2021/10/01 00:07:33;;;;;;;4.20;1.23;;;16.50;77.70;;;;;;4191119;28;20120;-60
2021/10/01 00:09:59;;;;;;;3.70;1.10;;;16.50;77.90;;;;;;4176016;28;20060;-59
2021/10/01 00:12:23;;;;;;;1.85;1.00;;;16.50;78.20;;;;;;4174639;28;22658;-59
2021/10/01 00:14:44;;;;;;;4.03;1.58;;;16.50;78.70;;;;;;4174440;28;20486;-60
2021/10/01 00:17:07;;;;;;;2.78;1.15;;;16.50;78.10;;;;;;4174240;28;20048;-60
2021/10/01 00:19:31;;;;;;;5.45;1.23;;;16.50;78.20;;;;;;4183611;28;20577;-59
2021/10/01 00:21:53;;;;;;;4.32;1.40;;;16.50;77.90;;;;;;4190747;28;20185;-59
2021/10/01 00:24:15;;;;;;;2.55;1.05;;;16.50;78.10;;;;;;4189877;28;20410;-59
2021/10/01 00:26:37;;;;;;;3.60;1.33;;;16.50;79.00;;;;;;4190520;28;20072;-59
2021/10/01 00:29:00;;;;;;;2.65;1.00;;;16.50;78.80;;;;;;4191833;28;20048;-59
2021/10/01 00:31:22;;;;;;;1.98;1.23;;;16.50;78.70;;;;;;4184686;28;20052;-60
2021/10/01 00:33:44;;;;;;;6.15;1.75;;;16.50;78.80;;;;;;4177303;28;20041;-60
2021/10/01 00:36:06;;;;;;;4.38;1.00;;;16.50;78.50;;;;;;4177339;28;20052;-60
2021/10/01 00:38:28;;;;;;;5.63;1.30;;;16.50;78.70;;;;;;4160721;28;20562;-60
2021/10/01 00:40:50;;;;;;;1.88;0.98;;;16.50;78.80;;;;;;4159120;28;20057;-60
2021/10/01 00:43:13;;;;;;;3.17;1.30;;;16.50;78.80;;;;;;4168847;28;20060;-60
2021/10/01 00:45:36;;;;;;;1.98;0.65;;;16.50;78.50;;;;;;4176192;28;20049;-59
2021/10/01 00:47:59;;;;;;;2.53;1.00;;;16.50;79.10;;;;;;4175664;28;20048;-59
2021/10/01 00:50:21;;;;;;;3.05;1.30;;;16.50;78.30;;;;;;4177108;28;20052;-58
2021/10/01 00:52:45;;;;;;;3.40;1.40;;;16.50;78.60;;;;;;4176741;28;20057;-59
2021/10/01 00:55:08;;;;;;;1.55;1.10;;;16.50;78.50;;;;;;4177322;28;20048;-59
2021/10/01 00:57:30;;;;;;;2.83;1.17;;;16.50;77.70;;;;;;4176369;28;20065;-59
2021/10/01 00:59:52;;;;;;;2.20;1.20;;;16.50;78.10;;;;;;4175468;28;20111;-59
2021/10/01 01:02:16;;;;;;;2.60;1.60;;;16.50;77.80;;;;;;4179079;28;20131;-60
2021/10/01 01:04:41;;;;;;;3.13;1.35;;;16.50;77.30;;;;;;4172674;28;20056;-59
2021/10/01 01:07:09;;;;;;;2.90;1.10;;;16.50;79.10;;;;;;4188282;28;20053;-59
2021/10/01 01:09:39;;;;;;;1.67;0.93;;;16.50;78.30;;;;;;4174775;28;20447;-59
2021/10/01 01:12:15;;;;;;;4.47;1.17;;;16.40;78.20;;;;;;4176512;28;20056;-59
2021/10/01 01:14:43;;;;;;;4.65;0.90;;;16.40;79.20;;;;;;4178607;28;20075;-59
2021/10/01 01:17:20;;;;;;;2.15;1.08;;;16.40;78.70;;;;;;4191466;28;20511;-59
2021/10/01 01:20:04;;;;;;;1.75;0.90;;;16.40;78.80;;;;;;4184824;28;20491;-59
2021/10/01 01:22:34;;;;;;;3.33;1.52;;;16.40;78.60;;;;;;4181189;28;20048;-59
2021/10/01 01:25:11;;;;;;;4.47;1.20;;;16.40;79.00;;;;;;4191655;28;20491;-59
2021/10/01 01:27:50;;;;;;;1.48;1.00;;;16.40;78.70;;;;;;4190983;28;20055;-59
2021/10/01 01:30:15;;;;;;;4.40;1.00;;;16.40;78.70;;;;;;4191175;28;20044;-59
2021/10/01 01:32:47;;;;;;;2.42;0.95;;;16.40;78.70;;;;;;4191071;28;20084;-60
2021/10/01 01:35:13;;;;;;;1.88;1.23;;;16.40;78.60;;;;;;4191580;28;20482;-60
2021/10/01 01:37:40;;;;;;;6.03;1.10;;;16.40;78.80;;;;;;4188968;28;20072;-59
2021/10/01 01:40:06;;;;;;;1.55;1.30;;;16.40;79.00;;;;;;4175570;28;20099;-59
2021/10/01 01:42:29;;;;;;;2.42;0.88;;;16.40;78.80;;;;;;4176167;28;20741;-60
2021/10/01 01:44:52;;;;;;;5.10;1.13;;;16.40;78.40;;;;;;4174713;28;20173;-60
2021/10/01 01:47:15;;;;;;;3.40;1.25;;;16.40;78.50;;;;;;4176198;28;20128;-59
2021/10/01 01:49:40;;;;;;;4.85;1.17;;;16.40;78.00;;;;;;4186189;28;20574;-59
2021/10/01 01:52:04;;;;;;;3.70;1.33;;;16.40;78.20;;;;;;4192894;28;20650;-59
2021/10/01 01:54:28;;;;;;;2.30;1.08;;;16.40;78.30;;;;;;4158166;28;20046;-59
2021/10/01 01:56:51;;;;;;;3.53;1.10;;;16.40;78.00;;;;;;4158170;28;20079;-59
2021/10/01 01:59:15;;;;;;;2.35;1.00;;;16.40;78.40;;;;;;4158109;28;20100;-59
2021/10/01 02:01:39;;;;;;;3.13;1.20;;;16.40;79.10;;;;;;4182814;28;20059;-59
2021/10/01 02:04:07;;;;;;;2.58;1.20;;;16.40;78.20;;;;;;4157874;28;20130;-60
2021/10/01 02:06:32;;;;;;;3.20;1.20;;;16.40;78.60;;;;;;4159395;28;20049;-60
2021/10/01 02:08:55;;;;;;;1.85;1.13;;;16.40;78.50;;;;;;4159421;28;20045;-59
2021/10/01 02:11:18;;;;;;;3.40;1.30;;;16.40;78.00;;;;;;4157848;28;20057;-59
2021/10/01 02:13:41;;;;;;;6.13;1.55;;;16.40;78.10;;;;;;4181553;28;20045;-60
2021/10/01 02:16:10;;;;;;;3.03;1.08;;;16.40;78.10;;;;;;4174336;28;20045;-59
2021/10/01 02:18:35;;;;;;;3.00;1.27;;;16.40;77.80;;;;;;4157406;28;20057;-60
2021/10/01 02:20:57;;;;;;;1.98;1.10;;;16.40;77.70;;;;;;4157511;28;20505;-59
2021/10/01 02:23:21;;;;;;;3.05;1.10;;;16.40;77.30;;;;;;4141476;28;20526;-59
2021/10/01 02:28:32;;;;;;;1.13;1.00;;;16.40;77.90;;;;;;4155181;28;20146;-59
2021/10/01 02:30:56;;;;;;;2.35;1.00;;;16.40;78.00;;;;;;4141299;28;20499;-60
2021/10/01 02:33:28;;;;;;;4.03;1.13;;;16.40;78.30;;;;;;4173382;28;20566;-60
2021/10/01 02:35:52;;;;;;;3.22;1.20;;;16.40;77.70;;;;;;4175081;28;20545;-60
2021/10/01 02:38:14;;;;;;;4.25;1.23;;;16.30;78.20;;;;;;4157864;28;20049;-60
2021/10/01 02:40:37;;;;;;;2.80;1.02;;;16.30;78.10;;;;;;4166550;28;20044;-60
2021/10/01 02:42:59;;;;;;;1.70;0.88;;;16.30;77.80;;;;;;4190418;28;20072;-60
2021/10/01 02:45:21;;;;;;;2.13;0.88;;;16.30;79.30;;;;;;4173994;28;20053;-59
2021/10/01 02:47:43;;;;;;;9.00;1.15;;;16.30;78.00;;;;;;4191703;28;20514;-60
2021/10/01 02:50:08;;;;;;;1.98;0.90;;;16.30;77.80;;;;;;4185999;28;20045;-60
2021/10/01 02:52:34;;;;;;;2.90;1.20;;;16.40;77.80;;;;;;4173819;28;20131;-59
2021/10/01 02:55:35;;;;;;;2.85;1.00;;;16.30;77.90;;;;;;4173464;28;20639;-59
2021/10/01 02:58:04;;;;;;;3.25;1.45;;;16.40;78.10;;;;;;4156878;28;20439;-59
2021/10/01 03:00:26;;;;;;;3.75;1.10;;;16.30;78.20;;;;;;4157079;28;20041;-59
2021/10/01 03:02:52;;;;;;;2.55;1.08;;;16.30;78.40;;;;;;4166798;28;20658;-59
2021/10/01 03:05:16;;;;;;;4.28;1.05;;;16.30;78.00;;;;;;4172914;28;20491;-59
2021/10/01 03:07:41;;;;;;;3.30;1.15;;;16.30;78.00;;;;;;4174186;28;20075;-59
2021/10/01 03:10:08;;;;;;;2.33;1.08;;;16.30;78.20;;;;;;4179265;28;20055;-59
2021/10/01 03:12:32;;;;;;;3.08;0.75;;;16.30;78.10;;;;;;4190320;28;20064;-59
2021/10/01 03:14:56;;;;;;;1.85;0.90;;;16.30;78.50;;;;;;4190131;28;20086;-59
2021/10/01 03:17:20;;;;;;;2.50;1.13;;;16.30;78.50;;;;;;4189511;28;20087;-60
2021/10/01 03:19:43;;;;;;;3.60;0.73;;;16.30;78.70;;;;;;4189405;28;20596;-60
2021/10/01 03:22:06;;;;;;;1.55;1.02;;;16.30;78.90;;;;;;4191525;28;20418;-60
2021/10/01 03:24:28;;;;;;;1.20;1.00;;;16.30;78.80;;;;;;4189732;28;20063;-60
2021/10/01 03:26:52;;;;;;;2.63;0.70;;;16.30;78.20;;;;;;4189172;28;20503;-59
2021/10/01 03:29:14;;;;;;;2.08;0.95;;;16.30;78.10;;;;;;4175405;28;20049;-59
2021/10/01 03:31:38;;;;;;;2.53;1.05;;;16.30;78.20;;;;;;4172940;28;20123;-60
2021/10/01 03:34:00;;;;;;;2.58;1.50;;;16.30;78.50;;;;;;4174413;28;20044;-59
2021/10/01 03:36:25;;;;;;;1.42;1.20;;;16.30;78.50;;;;;;4183958;28;20048;-59
2021/10/01 03:38:54;;;;;;;3.17;1.00;;;16.30;78.30;;;;;;4189272;28;20109;-59
2021/10/01 03:41:18;;;;;;;2.15;1.25;;;16.30;77.60;;;;;;4177034;28;20052;-59
2021/10/01 03:43:41;;;;;;;2.83;1.23;;;16.30;78.10;;;;;;4173118;28;20052;-58
2021/10/01 03:46:04;;;;;;;1.80;0.90;;;16.30;78.50;;;;;;4173290;28;20049;-62
2021/10/01 03:48:28;;;;;;;2.58;1.13;;;16.30;78.40;;;;;;4174199;28;20527;-59
2021/10/01 03:50:59;;;;;;;1.38;0.98;;;16.30;78.80;;;;;;4173110;28;20476;-60
2021/10/01 03:53:22;;;;;;;3.03;1.00;;;16.30;78.60;;;;;;4172867;28;20049;-59
2021/10/01 03:55:44;;;;;;;2.47;0.80;;;16.30;78.70;;;;;;4180880;28;20415;-59
2021/10/01 03:58:06;;;;;;;2.78;1.10;;;16.30;79.70;;;;;;4185610;28;20080;-60
2021/10/01 04:00:29;;;;;;;4.55;0.85;;;16.30;78.80;;;;;;4173054;28;20132;-60
2021/10/01 04:02:51;;;;;;;1.65;1.08;;;16.30;78.80;;;;;;4175642;28;20048;-59
2021/10/01 04:05:18;;;;;;;2.08;0.90;;;16.30;78.60;;;;;;4176569;28;20444;-59
2021/10/01 04:07:41;;;;;;;1.40;0.93;;;16.30;78.60;;;;;;4176518;28;20059;-59
2021/10/01 04:10:04;;;;;;;3.08;0.98;;;16.30;78.90;;;;;;4177134;28;20045;-59
2021/10/01 04:12:27;;;;;;;1.75;0.90;;;16.30;78.70;;;;;;4176522;28;20052;-58
2021/10/01 04:14:49;;;;;;;3.00;1.02;;;16.30;79.00;;;;;;4177965;28;20126;-59
2021/10/01 04:17:11;;;;;;;2.58;1.00;;;16.30;78.80;;;;;;4160050;28;20045;-58
2021/10/01 04:19:33;;;;;;;5.25;1.25;;;16.30;79.20;;;;;;4161139;28;20076;-58
2021/10/01 04:22:00;;;;;;;3.00;1.25;;;16.30;78.90;;;;;;4173744;28;20048;-59
2021/10/01 04:24:26;;;;;;;4.43;1.08;;;16.30;79.10;;;;;;4173943;28;20045;-60
2021/10/01 04:26:52;;;;;;;2.63;1.00;;;16.30;79.60;;;;;;4175931;28;20060;-59
2021/10/01 04:29:14;;;;;;;2.70;1.00;;;16.20;79.70;;;;;;4175972;28;20082;-59
2021/10/01 04:31:37;;;;;;;2.13;0.85;;;16.20;79.80;;;;;;4177509;28;20144;-59
2021/10/01 04:33:59;;;;;;;1.40;0.80;;;16.30;79.60;;;;;;4175917;28;20056;-59
2021/10/01 04:36:22;;;;;;;1.45;1.00;;;16.30;80.00;;;;;;4176244;28;20049;-59
2021/10/01 04:38:46;;;;;;;1.45;1.00;;;16.30;80.10;;;;;;4177247;28;20087;-59
2021/10/01 04:41:08;;;;;;;2.40;0.80;;;16.20;79.90;;;;;;4177234;28;20048;-59
2021/10/01 04:43:31;;;;;;;1.08;0.75;;;16.20;80.10;;;;;;4175968;28;20497;-59
2021/10/01 04:46:13;;;;;;;2.13;1.00;;;16.20;79.80;;;;;;4178259;28;20132;-59
2021/10/01 04:48:37;;;;;;;1.55;0.80;;;16.20;80.00;;;;;;4192311;28;20076;-59
2021/10/01 04:51:02;;;;;;;3.42;1.05;;;16.20;80.00;;;;;;4192193;28;20049;-58
2021/10/01 04:53:24;;;;;;;1.73;1.00;;;16.30;80.90;;;;;;4193766;28;20051;-59
2021/10/01 04:55:48;;;;;;;3.17;0.80;;;16.20;79.60;;;;;;4191307;28;20049;-59
2021/10/01 04:58:10;;;;;;;2.15;0.70;;;16.20;79.70;;;;;;4191387;28;20044;-59
2021/10/01 05:00:51;;;;;;;1.60;0.73;;;16.20;79.80;;;;;;4193406;28;20135;-58
2021/10/01 05:03:43;;;;;;;2.65;0.95;;;16.20;80.10;;;;;;4191017;28;20191;-58
2021/10/01 05:06:41;;;;;;;4.05;1.20;;;16.20;80.50;;;;;;4191637;28;20060;-59
2021/10/01 05:09:22;;;;;;;2.67;1.00;;;16.20;80.40;;;;;;4193054;28;20518;-58
2021/10/01 05:12:04;;;;;;;1.20;0.80;;;16.20;81.30;;;;;;4183560;28;20063;-58
2021/10/01 05:14:45;;;;;;;1.75;0.70;;;16.20;80.60;;;;;;4182588;28;20457;-57
2021/10/01 05:17:26;;;;;;;3.40;1.30;;;16.20;80.60;;;;;;4176715;28;20049;-58
2021/10/01 05:20:09;;;;;;;5.10;1.30;;;16.20;80.70;;;;;;4176474;28;20135;-59
2021/10/01 05:22:40;;;;;;;3.53;1.00;;;16.20;80.90;;;;;;4175096;28;20743;-58
2021/10/01 05:25:04;;;;;;;1.52;1.00;;;16.20;80.60;;;;;;4158624;28;20124;-59
2021/10/01 05:27:27;;;;;;;1.85;0.95;;;16.20;80.40;;;;;;4172767;28;20049;-59
2021/10/01 05:29:50;;;;;;;1.13;0.88;;;16.20;80.60;;;;;;4160243;28;20136;-60
2021/10/01 05:32:12;;;;;;;2.28;0.85;;;16.20;80.70;;;;;;4159912;28;20521;-59
2021/10/01 05:34:34;;;;;;;1.98;0.80;;;16.20;80.90;;;;;;4179357;28;20521;-60
2021/10/01 05:36:57;;;;;;;1.63;1.00;;;16.20;80.00;;;;;;4175000;28;20107;-60
2021/10/01 05:39:19;;;;;;;2.00;1.70;;;16.20;80.30;;;;;;4174795;28;20063;-59
2021/10/01 05:41:41;;;;;;;3.45;1.15;;;16.20;80.90;;;;;;4175875;28;20048;-59
2021/10/01 05:44:05;;;;;;;3.40;1.20;;;16.20;80.50;;;;;;4191273;28;20074;-59
2021/10/01 05:46:27;;;;;;;6.93;1.60;;;16.20;80.40;;;;;;4182971;28;20044;-60
2021/10/01 05:49:11;;;;;;;1.65;0.57;;;16.20;80.40;;;;;;4159536;28;20519;-60
2021/10/01 05:52:02;;;;;;;4.82;1.15;;;16.20;80.90;;;;;;4151749;28;20049;-60
2021/10/01 05:54:43;;;;;;;7.10;0.95;;;16.30;81.50;;;;;;4185488;28;20141;-59
2021/10/01 05:57:08;;;;;;;3.15;1.08;;;16.30;81.30;;;;;;4178348;28;20045;-58
2021/10/01 05:59:53;;;;;;;2.03;0.85;;;16.30;80.60;;;;;;4175790;28;20060;-59
2021/10/01 06:02:17;;;;;;;2.67;0.90;;;16.30;80.80;;;;;;4176116;28;20408;-59
2021/10/01 06:04:40;;;;;;;1.23;1.10;;;16.30;80.40;;;;;;4191757;28;20048;-59
2021/10/01 06:07:03;;;;;;;2.55;0.80;;;16.30;80.30;;;;;;4192584;28;20051;-59
2021/10/01 06:09:25;;;;;;;2.38;1.00;;;16.20;80.50;;;;;;4191811;28;20053;-59
2021/10/01 06:11:47;;;;;;;1.80;0.80;;;16.20;80.20;;;;;;4192413;28;20052;-60
2021/10/01 06:14:10;;;;;;;1.85;0.88;;;16.30;80.30;;;;;;4191952;28;20565;-60
2021/10/01 06:16:34;;;;;;;1.08;0.80;;;16.20;80.30;;;;;;4192391;28;20051;-59
2021/10/01 06:18:57;;;;;;;1.73;0.80;;;16.20;80.50;;;;;;4192215;28;20474;-59
2021/10/01 06:21:19;;;;;;;4.43;1.13;;;16.20;80.70;;;;;;4192059;28;20402;-58
2021/10/01 06:23:41;;;;;;;0.93;0.93;;;16.20;80.40;;;;;;4192197;28;20056;-62
2021/10/01 06:26:05;;;;;;;2.25;0.77;;;16.20;80.50;;;;;;4191308;28;20520;-60
2021/10/01 06:28:27;;;;;;;3.40;1.08;;;16.20;81.00;;;;;;4191973;28;20044;-60
2021/10/01 06:30:50;;;;;;;5.13;0.98;;;16.20;80.50;;;;;;4191475;28;20055;-60
2021/10/01 06:33:13;;;;;;;4.38;1.15;;;16.30;80.70;;;;;;4191916;28;20056;-59
2021/10/01 06:35:36;;;;;;;1.67;1.20;;;16.30;80.30;;;;;;4191755;28;20152;-60
2021/10/01 06:37:58;;;;;;;1.70;1.10;;;16.30;80.20;;;;;;4192202;28;20407;-61
2021/10/01 06:40:21;;;;;;;2.47;1.02;;;16.30;79.90;;;;;;4191908;28;20048;-61
2021/10/01 06:42:47;;;;;;;2.95;1.08;;;16.20;79.60;;;;;;4192050;28;20044;-60
2021/10/01 06:45:11;;;;;;;1.92;0.90;;;16.30;79.50;;;;;;4191695;28;20549;-60
2021/10/01 06:47:39;;;;;;;2.33;0.60;;;16.20;79.60;;;;;;4191664;28;20406;-59
2021/10/01 06:50:10;;;;;;;3.17;1.00;;;16.20;79.60;;;;;;4191984;28;20076;-58
2021/10/01 07:22:23;;;;;;;3.08;1.08;;;16.20;79.00;;;;;;4174367;28;20049;-60
2021/10/01 07:36:06;;;;;;;2.88;1.42;;;16.20;78.40;;;;;;4168448;28;20052;-61
2021/10/01 08:20:57;;;;;;;3.80;1.02;;;16.20;77.40;;;;;;4153395;28;20046;-59
2021/10/01 08:23:19;;;;;;;3.72;0.63;;;16.30;77.40;;;;;;4159061;28;20190;-58
2021/10/01 08:25:43;;;;;;;0.68;0.40;;;16.30;77.30;;;;;;4169307;28;20061;-59
2021/10/01 08:28:06;;;;;;;1.75;0.90;;;16.30;77.20;;;;;;4173995;28;20049;-59
2021/10/01 08:30:48;;;;;;;0.95;0.65;;;16.30;77.20;;;;;;4173729;28;20147;-59
2021/10/01 08:33:10;;;;;;;1.48;0.60;;;16.30;77.10;;;;;;4173716;28;20048;-59
2021/10/01 08:35:32;;;;;;;3.55;0.90;;;16.40;77.10;;;;;;4169691;28;20513;-58
2021/10/01 08:37:57;;;;;;;3.83;0.93;;;16.40;77.00;;;;;;4163502;28;20064;-58
2021/10/01 08:40:20;;;;;;;1.08;0.80;;;16.40;76.80;;;;;;4157677;28;20092;-59
2021/10/01 08:42:46;;;;;;;1.75;0.85;;;16.40;77.50;;;;;;4189325;28;20071;-59
2021/10/01 08:45:09;;;;;;;0.80;0.80;;;16.40;76.60;;;;;;4190240;28;20054;-58
2021/10/01 08:47:32;;;;;;;1.15;1.00;;;16.40;76.60;;;;;;4190439;28;20520;-59
2021/10/01 08:50:00;;;;;;;2.72;1.10;;;16.40;76.60;;;;;;4192815;28;20041;-59
2021/10/01 08:52:22;;;;;;;4.18;1.13;;;16.40;76.60;;;;;;4177582;28;20151;-59
2021/10/01 08:54:45;;;;;;;3.47;0.90;;;16.50;76.70;;;;;;4176907;28;20052;-59
2021/10/01 08:57:07;;;;;;;1.80;0.93;;;16.50;76.70;;;;;;4176691;28;20505;-59
2021/10/01 08:59:31;;;;;;;2.30;1.15;;;16.50;76.70;;;;;;4160203;28;20059;-59
2021/10/01 09:01:53;;;;;;;5.93;1.33;;;16.50;76.70;;;;;;4174402;28;20072;-59
2021/10/01 09:04:15;;;;;;;1.35;1.20;;;16.50;76.50;;;;;;4176604;28;20056;-58
2021/10/01 09:06:38;;;;;;;2.17;1.00;;;16.50;76.70;;;;;;4176545;28;20415;-59
2021/10/01 09:09:04;;;;;;;1.98;0.98;;;16.50;76.50;;;;;;4175288;28;20091;-59
2021/10/01 09:11:29;;;;;;;1.40;0.93;;;16.50;76.40;;;;;;4176253;28;20104;-58
2021/10/01 09:13:51;;;;;;;1.25;0.82;;;16.60;76.50;;;;;;4175997;28;20488;-58
2021/10/01 09:16:15;;;;;;;2.58;1.10;;;16.60;76.50;;;;;;4176342;28;20048;-59
2021/10/01 09:18:41;;;;;;;2.88;0.70;;;16.60;76.40;;;;;;4174843;28;20462;-59
2021/10/01 09:21:07;;;;;;;2.92;0.80;;;16.60;76.30;;;;;;4176029;28;20053;-59
2021/10/01 09:23:31;;;;;;;1.20;0.90;;;16.70;76.20;;;;;;4175493;28;20491;-60
2021/10/01 09:26:07;;;;;;;2.67;0.90;;;16.70;76.00;;;;;;4175673;28;20131;-58
2021/10/01 09:28:29;;;;;;;2.25;0.82;;;16.70;76.00;;;;;;4159433;28;20053;-58
2021/10/01 09:30:52;;;;;;;1.48;0.80;;;16.70;76.20;;;;;;4159467;28;20484;-60
2021/10/01 09:33:17;;;;;;;2.97;1.00;;;16.80;76.50;;;;;;4159293;28;20049;-59
2021/10/01 09:35:41;;;;;;;2.75;1.05;;;16.80;76.50;;;;;;4176033;28;20085;-59
2021/10/01 09:38:08;;;;;;;3.67;1.10;;;16.80;76.40;;;;;;4175523;28;20073;-59
2021/10/01 09:40:31;;;;;;;2.95;0.82;;;16.80;76.20;;;;;;4175991;28;20048;-59
2021/10/01 09:42:54;;;;;;;1.70;0.70;;;16.80;76.00;;;;;;4175833;28;20106;-59
2021/10/01 09:45:18;;;;;;;2.97;0.70;;;16.80;75.70;;;;;;4184903;28;20059;-58
2021/10/01 09:47:43;;;;;;;2.15;0.90;;;16.90;76.60;;;;;;4192441;28;20052;-58
2021/10/01 09:50:10;;;;;;;3.20;1.08;;;16.90;75.50;;;;;;4192730;28;20052;-59
2021/10/01 09:52:42;;;;;;;1.13;0.85;;;16.80;75.40;;;;;;4191739;28;20048;-59
2021/10/01 09:55:06;;;;;;;2.83;1.05;;;16.80;75.40;;;;;;4190418;28;20498;-58
2021/10/01 09:57:28;;;;;;;1.88;0.90;;;16.90;75.50;;;;;;4183983;28;20057;-58
2021/10/01 09:59:50;;;;;;;5.10;1.02;;;16.90;75.50;;;;;;4175166;28;20056;-59
2021/10/01 10:02:14;;;;;;;3.35;0.80;;;16.80;75.50;;;;;;4175456;28;20052;-59
2021/10/01 10:04:39;;;;;;;2.22;0.52;;;16.80;75.50;;;;;;4178637;28;20143;-59
2021/10/01 10:07:15;;;;;;;2.13;0.80;;;16.90;75.60;;;;;;4174816;28;20392;-59
2021/10/01 10:09:38;;;;;;;4.55;1.00;;;16.90;75.60;;;;;;4175322;28;20111;-58
2021/10/01 10:12:02;;;;;;;1.42;0.82;;;16.90;75.60;;;;;;4192310;28;20184;-58
2021/10/01 10:14:26;;;;;;;2.38;1.30;;;16.90;75.50;;;;;;4192127;28;20032;-58
2021/10/01 10:16:48;;;;;;;1.50;0.90;;;16.90;75.40;;;;;;4190577;28;20059;-59
2021/10/01 10:19:15;;;;;;;2.83;0.90;;;16.90;75.40;;;;;;4192059;28;20052;-59
2021/10/01 10:21:37;;;;;;;2.53;0.88;;;16.90;75.40;;;;;;4176781;28;20555;-59
2021/10/01 10:24:01;;;;;;;2.35;0.85;;;16.90;75.50;;;;;;4175506;28;20049;-59
2021/10/01 10:26:24;;;;;;;2.55;1.00;;;16.90;75.70;;;;;;4175097;28;20048;-58
2021/10/01 10:28:48;;;;;;;4.97;0.88;;;16.90;75.70;;;;;;4175449;28;20057;-59
2021/10/01 10:31:11;;;;;;;3.00;0.85;;;16.90;76.00;;;;;;4175273;28;20213;-58
2021/10/01 10:33:40;;;;;;;3.30;1.40;;;17.00;75.90;;;;;;4176398;28;20033;-59
2021/10/01 10:36:22;;;;;;;3.80;1.13;;;17.00;75.90;;;;;;4175461;28;20142;-59
2021/10/01 10:38:44;;;;;;;2.67;0.90;;;17.00;75.80;;;;;;4174728;28;20063;-58
2021/10/01 10:41:23;;;;;;;1.45;1.17;;;17.00;75.80;;;;;;4175331;28;20084;-59
2021/10/01 10:43:46;;;;;;;2.15;0.80;;;17.00;75.80;;;;;;4175328;28;20045;-57
2021/10/01 10:46:09;;;;;;;1.20;1.00;;;17.00;75.70;;;;;;4163957;28;20057;-58
2021/10/01 10:48:31;;;;;;;2.53;0.93;;;17.10;75.80;;;;;;4191701;28;20048;-58
2021/10/01 10:50:58;;;;;;;3.35;1.00;;;17.10;75.90;;;;;;4191963;28;20226;-59
2021/10/01 10:53:24;;;;;;;1.63;1.10;;;17.10;76.00;;;;;;4190954;28;20694;-58
2021/10/01 10:56:00;;;;;;;2.13;1.10;;;17.10;75.90;;;;;;4191537;28;20044;-58
2021/10/01 10:58:46;;;;;;;1.55;0.73;;;17.10;75.90;;;;;;4175737;28;20045;-57
2021/10/01 11:01:43;;;;;;;3.33;1.15;;;17.20;76.00;;;;;;4174761;28;20041;-59
2021/10/01 11:04:39;;;;;;;2.78;0.90;;;17.20;76.00;;;;;;4174825;28;20053;-59
2021/10/01 11:07:01;;;;;;;1.58;1.00;;;17.20;76.20;;;;;;4173722;28;20555;-59
2021/10/01 11:09:28;;;;;;;0.70;0.70;;;17.20;76.30;;;;;;4175299;28;20052;-59
2021/10/01 11:11:58;;;;;;;0.95;0.90;;;17.20;76.40;;;;;;4174091;28;20048;-59
2021/10/01 11:14:23;;;;;;;1.35;0.80;;;17.20;76.30;;;;;;4175104;28;23937;-59
2021/10/01 11:16:46;;;;;;;3.17;0.70;;;17.20;76.70;;;;;;4172887;28;20790;-58
2021/10/01 11:19:10;;;;;;;3.08;1.00;;;17.20;76.90;;;;;;4158340;28;20144;-59
2021/10/01 11:21:34;;;;;;;2.80;0.70;;;17.20;76.80;;;;;;4158600;28;20080;-59
2021/10/01 11:23:56;;;;;;;3.17;1.10;;;17.20;76.90;;;;;;4158207;28;20423;-59
2021/10/01 11:26:25;;;;;;;1.42;1.10;;;17.20;77.70;;;;;;4157819;28;20051;-59
2021/10/01 11:28:48;;;;;;;1.10;0.80;;;17.20;76.90;;;;;;4190216;28;20760;-58
2021/10/01 11:31:11;;;;;;;1.90;0.80;;;17.20;76.90;;;;;;4191306;28;20056;-58
2021/10/01 11:33:33;;;;;;;2.72;0.88;;;17.30;77.00;;;;;;4191425;28;20391;-59
2021/10/01 11:35:57;;;;;;;1.33;1.13;;;17.30;77.00;;;;;;4179816;28;20143;-58
2021/10/01 11:38:22;;;;;;;1.73;0.70;;;17.30;77.00;;;;;;4174626;28;20514;-59
2021/10/01 11:40:44;;;;;;;4.05;1.38;;;17.30;77.00;;;;;;4174717;28;20037;-58
2021/10/01 11:43:06;;;;;;;2.30;1.17;;;17.30;77.00;;;;;;4174384;28;20048;-58
2021/10/01 11:45:30;;;;;;;1.25;0.80;;;17.30;77.00;;;;;;4180588;28;20056;-59
2021/10/01 11:47:56;;;;;;;1.30;0.82;;;17.30;77.90;;;;;;4190619;28;20040;-58
2021/10/01 11:50:18;;;;;;;2.65;0.90;;;17.30;77.00;;;;;;4190960;28;20499;-58
2021/10/01 11:52:48;;;;;;;2.35;1.05;;;17.40;76.90;;;;;;4191120;28;20061;-59
2021/10/01 11:55:10;;;;;;;2.58;0.90;;;17.40;77.10;;;;;;4188994;28;20131;-58
2021/10/01 11:57:37;;;;;;;1.65;1.10;;;17.40;76.80;;;;;;4189835;28;20053;-58
2021/10/01 12:00:02;;;;;;;3.95;1.77;;;17.40;76.90;;;;;;4191098;28;20080;-58
2021/10/01 12:02:35;;;;;;;1.90;1.00;;;17.40;76.80;;;;;;4191026;28;20063;-59
2021/10/01 12:04:59;;;;;;;2.08;1.20;;;17.40;76.80;;;;;;4189010;28;20060;-59
2021/10/01 12:07:22;;;;;;;2.15;0.98;;;17.40;76.80;;;;;;4174576;28;20049;-60
2021/10/01 12:10:01;;;;;;;3.03;0.95;;;17.40;76.80;;;;;;4174386;28;20080;-60
2021/10/01 12:12:23;;;;;;;2.08;0.95;;;17.40;77.00;;;;;;4174212;28;20123;-60
2021/10/01 12:14:50;;;;;;;2.38;1.17;;;17.40;77.10;;;;;;4175123;28;20060;-59
2021/10/01 12:17:12;;;;;;;2.85;1.35;;;17.40;77.10;;;;;;4190307;28;20052;-60
2021/10/01 12:19:35;;;;;;;2.20;1.05;;;17.40;77.00;;;;;;4190864;28;20137;-59
2021/10/01 12:22:08;;;;;;;1.10;0.95;;;17.40;77.10;;;;;;4190618;28;20048;-59
2021/10/01 12:24:41;;;;;;;2.25;1.02;;;17.40;77.10;;;;;;4192017;28;20052;-58
2021/10/01 12:27:04;;;;;;;2.33;1.00;;;17.40;77.30;;;;;;4160720;28;20049;-59
2021/10/01 12:29:27;;;;;;;1.55;0.88;;;17.40;77.40;;;;;;4161053;28;20551;-59
2021/10/01 12:31:52;;;;;;;1.77;0.95;;;17.30;77.30;;;;;;4160896;28;20511;-59
2021/10/01 12:34:20;;;;;;;2.75;0.63;;;17.30;77.30;;;;;;4160934;28;20053;-59
2021/10/01 12:36:43;;;;;;;1.23;1.13;;;17.30;77.50;;;;;;4160331;28;20119;-59
2021/10/01 12:39:07;;;;;;;4.03;1.10;;;17.30;77.60;;;;;;4159787;28;20049;-59
2021/10/01 12:41:30;;;;;;;4.28;1.15;;;17.30;77.80;;;;;;4160765;28;20099;-59
2021/10/01 12:43:54;;;;;;;2.20;1.15;;;17.30;78.10;;;;;;4171010;28;20072;-59
2021/10/01 12:46:41;;;;;;;0.90;0.60;;;17.30;78.40;;;;;;4177247;28;20145;-59
2021/10/01 12:49:24;;;;;;;1.35;0.90;;;17.30;78.70;;;;;;4176464;28;20102;-59
2021/10/01 12:52:16;;;;;;;3.25;1.13;;;17.20;79.00;;;;;;4176867;28;20081;-57
2021/10/01 12:54:44;;;;;;;;;;;17.20;79.50;;;;;;4177668;28;20106;-59
2021/10/01 12:57:14;;;;;;;1.65;1.05;;;17.20;79.30;;;;;;4177265;28;19924;-59
2021/10/01 12:59:37;;;;;;;2.13;1.05;;;17.20;79.70;;;;;;4176989;28;20559;-59
2021/10/01 13:02:07;;;;;;;2.70;1.33;;;17.20;79.80;;;;;;4176546;28;20128;-58
2021/10/01 13:04:29;;;;;;;4.20;1.17;;;17.20;80.10;;;;;;4177753;28;20055;-57
2021/10/01 13:06:51;;;;;;;1.95;1.13;;;17.20;80.30;;;;;;4176742;28;20149;-59
2021/10/01 13:09:40;;;;;;;1.98;1.17;;;17.20;80.40;;;;;;4177174;28;20494;-59
2021/10/01 13:12:02;;;;;;;3.67;1.10;;;17.10;80.60;;;;;;4176405;28;20059;-59
2021/10/01 13:14:24;;;;;;;1.20;1.10;;;17.10;80.50;;;;;;4188286;28;20640;-59
2021/10/01 13:16:47;;;;;;;2.00;1.00;;;17.10;80.60;;;;;;4193284;28;20041;-60
2021/10/01 13:19:13;;;;;;;1.30;1.20;;;17.10;80.70;;;;;;4193287;28;20088;-59
2021/10/01 13:21:35;;;;;;;1.50;1.35;;;17.10;80.90;;;;;;4193278;28;20135;-59
2021/10/01 13:23:59;;;;;;;1.10;1.10;;;17.10;81.10;;;;;;4192414;28;20052;-58
2021/10/01 13:26:24;;;;;;;4.47;1.23;;;17.10;81.30;;;;;;4185434;28;20041;-59
2021/10/01 13:28:48;;;;;;;2.08;1.30;;;17.10;81.30;;;;;;4176199;28;20049;-60
2021/10/01 13:31:10;;;;;;;1.92;1.10;;;17.10;81.50;;;;;;4175666;28;20068;-60
2021/10/01 13:33:32;;;;;;;1.60;1.27;;;17.10;81.50;;;;;;4171449;28;20056;-59
2021/10/01 13:35:56;;;;;;;3.90;1.13;;;17.10;81.70;;;;;;4192088;28;20545;-59
2021/10/01 13:38:27;;;;;;;3.40;1.48;;;17.10;81.90;;;;;;4193059;28;20052;-60
2021/10/01 13:40:49;;;;;;;3.28;1.40;;;17.10;82.10;;;;;;4192765;28;20048;-59
2021/10/01 13:43:13;;;;;;;2.88;1.40;;;17.10;81.90;;;;;;4190151;28;20048;-59
2021/10/01 13:45:35;;;;;;;1.35;1.25;;;17.10;82.30;;;;;;4176134;28;20048;-59
2021/10/01 13:47:57;;;;;;;2.13;1.25;;;17.10;82.30;;;;;;4176283;28;20071;-60
2021/10/01 13:50:20;;;;;;;2.33;1.50;;;17.10;82.40;;;;;;4176213;28;20044;-59
2021/10/01 13:52:42;;;;;;;2.67;1.13;;;17.10;82.40;;;;;;4176349;28;20052;-59
2021/10/01 13:55:06;;;;;;;1.20;1.10;;;17.10;82.40;;;;;;4192448;28;20552;-58
2021/10/01 13:57:28;;;;;;;3.15;1.20;;;17.10;82.30;;;;;;4192413;28;20048;-59
2021/10/01 13:59:52;;;;;;;5.07;1.67;;;17.10;82.30;;;;;;4192373;28;20117;-59
2021/10/01 14:02:14;;;;;;;2.38;1.38;;;17.10;82.50;;;;;;4191396;28;20048;-58
2021/10/01 14:04:37;;;;;;;2.35;1.50;;;17.00;82.30;;;;;;4190405;28;20051;-58
2021/10/01 14:06:59;;;;;;;3.67;1.65;;;17.00;82.50;;;;;;4192282;28;20137;-59